Webcam 1 more information Webcam 1


Webcam 2 more information Webcam 2


avvertimento per Temporali more information blitzortung!


avvertimento per Pioggia more information rain snow radar


altri nostri siti meteo:

Pomeziameteo 1Sito sul meteo

Pomeziameteo DashboardSito sul meteo

Caput FrigorisSito sul meteo

BarcellonameteoSito sul meteo

MeteoipassiSito sul meteo

ViterbometeoSito sul meteo

MeteotortoretoSito sul meteo

Stazione LineameteoSito sul meteo



Temporali Inizio validita dal: 05-08-2020 10:00 Fino: 07-08-2020 18:59 Allerta per: Temporali Livello: Giallo info button
Pioggia Inizio validita dal: 05-08-2020 10:00 Fino: 06-08-2020 00:59 Allerta per: Pioggia Livello: Giallo info button

Notice: Undefined offset: 6 in /web/htdocs/www.castelnuovovomanometeo.it/home/weather28/metar/metarDisplay.php on line 76

Notice: Undefined offset: 5 in /web/htdocs/www.castelnuovovomanometeo.it/home/weather28/metar/metarDisplay.php on line 76

Report METAR

   
LIBP - Pescara
Dati ricevuti: 05-08-2020 12:50
Parzialmente nuvoloso  
Parzialmente nuvoloso  
   Vento: NNW 16.7 km/h
Vento: NNW 16.7 km/h
Temperatura: 24°C
P.to Rugiada: 15°C
Umidita: 57%
Barometro: 1010 hPa
Nuvole: Parzialmente nuvoloso
Visibilita: oltre 10 km
dettagli cloud: Parzialmente nuvoloso 3000 ft
LIBP 051050Z AUTO 34009KT 290V050 9999 SCT030/// 24/15 Q1010
LIRZ - Perugia
Dati ricevuti: 05-08-2020 12:50
Molto nuvoloso  
Molto nuvoloso  
   Vento: NE 16.7 km/h
Vento: NE 16.7 km/h
Temperatura: 23°C
P.to Rugiada: 15°C
Umidita: 61%
Barometro: 1011 hPa
Nuvole: Molto nuvoloso
Visibilita: oltre 10 km
dettagli cloud: Molto nuvoloso 4100 ft
LIRZ 051050Z AUTO 04009KT 010V080 9999 BKN041/// 23/15 Q1011
LIQN - Rieti
Dati ricevuti: 05-08-2020 11:50
DATI Obsoleti
Sereno  
Sereno  
   Vento: Variabile 5.6 km/h
Vento: Variabile 5.6 km/h
Temperatura: 22°C
P.to Rugiada: 13°C
Umidita: 57%
Barometro: 1010 hPa
Visibilita: oltre 10 km
dettagli cloud: Sereno
LIQN 050950Z VRB03KT CAVOK 22/13 Q1010
LIPY - Falconara
Dati ricevuti: 05-08-2020 12:50
Molto nuvoloso  
Molto nuvoloso  
   Vento: Nord 20.4 km/h
Vento: Nord 20.4 km/h
Temperatura: 24°C
P.to Rugiada: 16°C
Umidita: 61%
Barometro: 1011 hPa
Nuvole: Molto nuvoloso
Visibilita: oltre 10 km
dettagli cloud: Molto nuvoloso 3300 ft
LIPY 051050Z AUTO 36011KT 9999 BKN033/// 24/16 Q1011
  

Script sviluppato da  Saratoga-weather.org Adattato per il modello da  Weerstation Leuven

Potete trovare le nostre info meteo anche a:

Weather Underground

AWEKAS

Citizen Weather Observer Program (CWOP)

HAMweather, WeatherForYou, PWS Weather

Strumentazione usata:

Stazione meteo
Oregon 928

Programma gestore dati meteo
WVIEW

Server per i dati meteo
Pc-WDS5

Oregon 928

WVIEW

Pc-WDS5